createdAt,value
2023-07-18T00:00:49.291Z,19.57
2023-07-18T00:01:49.278Z,19.62
2023-07-18T00:02:49.260Z,19.59
2023-07-18T00:03:49.437Z,19.57
2023-07-18T00:04:49.247Z,19.52
2023-07-18T00:05:49.220Z,19.50
2023-07-18T00:06:49.208Z,19.53
2023-07-18T00:07:49.187Z,19.57
2023-07-18T00:08:49.204Z,19.59
2023-07-18T00:09:49.195Z,19.52
2023-07-18T00:10:49.153Z,19.47
2023-07-18T00:11:49.143Z,19.41
2023-07-18T00:12:49.160Z,19.37
2023-07-18T00:13:49.125Z,19.42
2023-07-18T00:14:49.128Z,19.42
2023-07-18T00:15:49.135Z,19.47
2023-07-18T00:16:49.116Z,19.42
2023-07-18T00:17:49.107Z,19.41
2023-07-18T00:18:49.069Z,19.47
2023-07-18T00:19:49.049Z,19.44
2023-07-18T00:20:49.040Z,19.47
2023-07-18T00:21:49.122Z,19.41
2023-07-18T00:22:49.061Z,19.45
2023-07-18T00:23:49.006Z,19.39
2023-07-18T00:24:49.022Z,19.44
2023-07-18T00:25:48.982Z,19.41
2023-07-18T00:26:49.006Z,19.38
2023-07-18T00:27:48.972Z,19.38
2023-07-18T00:28:48.978Z,19.35
2023-07-18T00:29:48.950Z,19.39
2023-07-18T00:30:48.936Z,19.34
2023-07-18T00:31:49.001Z,19.38
2023-07-18T00:32:49.098Z,19.34
2023-07-18T00:33:48.897Z,19.35
2023-07-18T00:34:48.889Z,19.31
2023-07-18T00:35:48.890Z,19.22
2023-07-18T00:36:48.890Z,19.37
2023-07-18T00:37:48.883Z,19.26
2023-07-18T00:38:48.841Z,19.26
2023-07-18T00:39:48.839Z,19.19
2023-07-18T00:40:48.819Z,19.17
2023-07-18T00:41:51.723Z,19.09
2023-07-18T00:42:48.943Z,19.16
2023-07-18T00:43:48.809Z,19.09
2023-07-18T00:44:48.803Z,19.16
2023-07-18T00:45:49.015Z,19.15
2023-07-18T00:46:48.780Z,19.07
2023-07-18T00:47:48.784Z,19.05
2023-07-18T00:48:48.735Z,19.09
2023-07-18T00:49:48.733Z,19.07
2023-07-18T00:50:48.721Z,19.05
2023-07-18T00:51:48.738Z,18.98
2023-07-18T00:52:48.694Z,18.91
2023-07-18T00:53:48.687Z,18.88
2023-07-18T00:54:48.677Z,18.86
2023-07-18T00:55:48.658Z,18.85
2023-07-18T00:56:48.652Z,18.91
2023-07-18T00:57:48.707Z,18.86
2023-07-18T00:58:48.642Z,18.96
2023-07-18T00:59:48.621Z,18.88
2023-07-18T01:00:48.690Z,18.88
2023-07-18T01:01:48.662Z,18.88
2023-07-18T01:02:48.689Z,18.88
2023-07-18T01:03:48.620Z,18.96
2023-07-18T01:04:48.562Z,18.93
2023-07-18T01:05:48.546Z,18.82
2023-07-18T01:06:48.562Z,18.78
2023-07-18T01:07:48.604Z,18.79
2023-07-18T01:08:48.537Z,18.83
2023-07-18T01:09:48.539Z,18.75
2023-07-18T01:10:48.497Z,18.83
2023-07-18T01:11:48.505Z,18.74
2023-07-18T01:12:48.496Z,18.68
2023-07-18T01:13:48.466Z,18.71
2023-07-18T01:14:48.448Z,18.76
2023-07-18T01:15:48.483Z,18.83
2023-07-18T01:16:48.462Z,18.70
2023-07-18T01:17:48.486Z,18.64
2023-07-18T01:18:48.406Z,18.68
2023-07-18T01:19:48.401Z,18.68
2023-07-18T01:20:48.419Z,18.64
2023-07-18T01:21:48.384Z,18.66
2023-07-18T01:22:48.403Z,18.66
2023-07-18T01:23:48.365Z,18.71
2023-07-18T01:24:48.349Z,18.64
2023-07-18T01:25:48.368Z,18.63
2023-07-18T01:26:48.331Z,18.66
2023-07-18T01:27:48.321Z,18.68
2023-07-18T01:28:48.306Z,18.67
2023-07-18T01:29:48.290Z,18.56
2023-07-18T01:30:48.350Z,18.58
2023-07-18T01:31:48.293Z,18.52
2023-07-18T01:32:48.298Z,18.57
2023-07-18T01:33:48.253Z,18.49
2023-07-18T01:34:48.235Z,18.52
2023-07-18T01:35:48.275Z,18.51
2023-07-18T01:36:48.222Z,18.51
2023-07-18T01:37:48.228Z,18.49
2023-07-18T01:38:48.198Z,18.45
2023-07-18T01:39:48.203Z,18.45
2023-07-18T01:40:48.170Z,18.43
2023-07-18T01:41:48.184Z,18.48
2023-07-18T01:42:48.151Z,18.51
2023-07-18T01:43:48.141Z,18.51
2023-07-18T01:44:48.216Z,18.48
2023-07-18T01:45:48.152Z,18.45
2023-07-18T01:46:48.213Z,18.42
2023-07-18T01:47:48.152Z,18.33
2023-07-18T01:48:48.100Z,18.41
2023-07-18T01:49:48.074Z,18.33
2023-07-18T01:50:48.085Z,18.36
2023-07-18T01:51:48.064Z,18.34
2023-07-18T01:52:48.111Z,18.27
2023-07-18T01:53:50.823Z,18.24
2023-07-18T01:54:48.026Z,18.18
2023-07-18T01:55:48.042Z,18.23
2023-07-18T01:56:48.001Z,18.27
2023-07-18T01:57:48.013Z,18.26
2023-07-18T01:58:47.971Z,18.23
2023-07-18T01:59:47.968Z,18.24
2023-07-18T02:00:47.965Z,18.27
2023-07-18T02:01:48.029Z,18.23
2023-07-18T02:02:48.042Z,18.20
2023-07-18T02:03:47.936Z,18.08
2023-07-18T02:04:47.941Z,18.03
2023-07-18T02:05:47.906Z,18.06
2023-07-18T02:06:47.922Z,18.12
2023-07-18T02:07:47.877Z,17.94
2023-07-18T02:08:47.881Z,17.97
2023-07-18T02:09:47.866Z,18.01
2023-07-18T02:10:47.854Z,18.05
2023-07-18T02:11:47.874Z,17.97
2023-07-18T02:12:47.824Z,17.93
2023-07-18T02:13:47.815Z,17.97
2023-07-18T02:14:47.829Z,17.97
2023-07-18T02:15:47.805Z,17.99
2023-07-18T02:16:47.834Z,17.91
2023-07-18T02:17:47.847Z,17.84
2023-07-18T02:18:47.798Z,17.97
2023-07-18T02:19:47.761Z,18.01
2023-07-18T02:20:47.786Z,17.96
2023-07-18T02:21:47.749Z,18.03
2023-07-18T02:22:47.761Z,18.08
2023-07-18T02:23:48.253Z,17.94
2023-07-18T02:24:47.706Z,18.02
2023-07-18T02:25:47.715Z,17.90
2023-07-18T02:26:47.679Z,17.76
2023-07-18T02:27:47.734Z,17.76
2023-07-18T02:28:47.713Z,17.75
2023-07-18T02:29:47.645Z,17.81
2023-07-18T02:30:47.673Z,17.86
2023-07-18T02:31:47.630Z,17.76
2023-07-18T02:32:47.685Z,17.75
2023-07-18T02:33:47.615Z,17.75
2023-07-18T02:34:47.620Z,17.72
2023-07-18T02:35:47.587Z,17.63
2023-07-18T02:36:47.605Z,17.66
2023-07-18T02:37:47.612Z,17.68
2023-07-18T02:38:47.550Z,17.63
2023-07-18T02:39:47.577Z,17.59
2023-07-18T02:40:47.550Z,17.65
2023-07-18T02:41:47.542Z,17.56
2023-07-18T02:42:47.528Z,17.57
2023-07-18T02:43:47.496Z,17.62
2023-07-18T02:44:47.493Z,17.63
2023-07-18T02:45:50.386Z,17.46
2023-07-18T02:46:47.486Z,17.50
2023-07-18T02:47:47.517Z,17.45
2023-07-18T02:48:47.452Z,17.45
2023-07-18T02:49:47.440Z,17.47
2023-07-18T02:50:47.458Z,17.50
2023-07-18T02:51:47.418Z,17.52
2023-07-18T02:52:47.430Z,17.47
2023-07-18T02:53:47.399Z,17.45
2023-07-18T02:54:47.420Z,17.46
2023-07-18T02:55:47.373Z,17.45
2023-07-18T02:56:47.431Z,17.47
2023-07-18T02:57:47.348Z,17.47
2023-07-18T02:58:47.340Z,17.47
2023-07-18T02:59:47.329Z,17.46
2023-07-18T03:00:47.319Z,17.43
2023-07-18T03:01:47.404Z,17.41
2023-07-18T03:02:47.344Z,17.41
2023-07-18T03:03:47.325Z,17.32
2023-07-18T03:04:47.283Z,17.46
2023-07-18T03:05:47.293Z,17.39
2023-07-18T03:06:47.280Z,17.43
2023-07-18T03:07:47.247Z,17.47
2023-07-18T03:08:47.284Z,17.41
2023-07-18T03:09:47.312Z,17.38
2023-07-18T03:10:47.206Z,17.38
2023-07-18T03:11:47.233Z,17.37
2023-07-18T03:12:47.212Z,17.35
2023-07-18T03:13:47.180Z,17.37
2023-07-18T03:14:47.162Z,17.38
2023-07-18T03:15:47.156Z,17.46
2023-07-18T03:16:47.228Z,17.39
2023-07-18T03:17:47.182Z,17.38
2023-07-18T03:18:47.120Z,17.41
2023-07-18T03:19:47.107Z,17.39
2023-07-18T03:20:47.104Z,17.39
2023-07-18T03:21:47.107Z,17.41
2023-07-18T03:22:47.141Z,17.41
2023-07-18T03:23:47.083Z,17.32
2023-07-18T03:24:47.082Z,17.38
2023-07-18T03:25:47.046Z,17.37
2023-07-18T03:26:47.055Z,17.38
2023-07-18T03:27:47.055Z,17.41
2023-07-18T03:28:47.012Z,17.41
2023-07-18T03:29:47.000Z,17.41
2023-07-18T03:30:46.988Z,17.47
2023-07-18T03:31:47.010Z,17.47
2023-07-18T03:32:47.050Z,17.43
2023-07-18T03:33:46.958Z,17.46
2023-07-18T03:34:46.946Z,17.41
2023-07-18T03:35:46.934Z,17.41
2023-07-18T03:36:46.938Z,17.38
2023-07-18T03:37:46.944Z,17.41
2023-07-18T03:38:46.905Z,17.43
2023-07-18T03:39:46.887Z,17.43
2023-07-18T03:40:46.900Z,17.46
2023-07-18T03:41:46.885Z,17.39
2023-07-18T03:42:47.019Z,17.43
2023-07-18T03:43:46.852Z,17.34
2023-07-18T03:44:46.842Z,17.32
2023-07-18T03:45:46.853Z,17.24
2023-07-18T03:46:46.921Z,17.22
2023-07-18T03:47:46.814Z,17.27
2023-07-18T03:48:46.828Z,17.25
2023-07-18T03:49:46.787Z,17.19
2023-07-18T03:50:46.772Z,17.16
2023-07-18T03:51:46.768Z,17.20
2023-07-18T03:52:46.754Z,17.25
2023-07-18T03:53:46.769Z,17.20
2023-07-18T03:54:46.772Z,17.20
2023-07-18T03:55:46.725Z,17.28
2023-07-18T03:56:46.728Z,17.31
2023-07-18T03:57:46.697Z,17.34
2023-07-18T03:58:46.712Z,17.34
2023-07-18T03:59:46.686Z,17.31
2023-07-18T04:00:46.660Z,17.27
2023-07-18T04:01:46.684Z,17.30
2023-07-18T04:02:47.238Z,17.35
2023-07-18T04:03:46.690Z,17.34
2023-07-18T04:04:46.618Z,17.34
2023-07-18T04:05:46.612Z,17.34
2023-07-18T04:06:46.598Z,17.27
2023-07-18T04:07:46.607Z,17.24
2023-07-18T04:08:46.606Z,17.27
2023-07-18T04:09:46.596Z,17.28
2023-07-18T04:10:46.552Z,17.31
2023-07-18T04:11:46.541Z,17.27
2023-07-18T04:12:46.600Z,17.31
2023-07-18T04:13:46.550Z,17.32
2023-07-18T04:14:46.543Z,17.22
2023-07-18T04:15:46.547Z,17.22
2023-07-18T04:16:46.554Z,17.19
2023-07-18T04:17:46.522Z,17.20
2023-07-18T04:18:46.480Z,17.14
2023-07-18T04:19:46.466Z,17.24
2023-07-18T04:20:46.467Z,17.27
2023-07-18T04:21:46.443Z,17.31
2023-07-18T04:22:46.496Z,17.37
2023-07-18T04:23:46.421Z,17.27
2023-07-18T04:24:46.439Z,17.30
2023-07-18T04:25:46.424Z,17.25
2023-07-18T04:26:46.402Z,17.25
2023-07-18T04:27:46.377Z,17.35
2023-07-18T04:28:46.418Z,17.35
2023-07-18T04:29:46.361Z,17.32
2023-07-18T04:30:46.361Z,17.31
2023-07-18T04:31:46.378Z,17.27
2023-07-18T04:32:46.400Z,17.30
2023-07-18T04:33:46.304Z,17.24
2023-07-18T04:34:46.295Z,17.17
2023-07-18T04:35:46.304Z,17.31
2023-07-18T04:36:46.285Z,17.35
2023-07-18T04:37:46.258Z,17.28
2023-07-18T04:38:46.254Z,17.30
2023-07-18T04:39:46.246Z,17.30
2023-07-18T04:40:46.245Z,17.31
2023-07-18T04:41:55.232Z,17.31
2023-07-18T04:42:47.208Z,17.34
2023-07-18T04:43:46.207Z,17.31
2023-07-18T04:44:46.263Z,17.20
2023-07-18T04:45:46.335Z,17.35
2023-07-18T04:46:46.259Z,17.38
2023-07-18T04:47:46.178Z,17.32
2023-07-18T04:48:46.147Z,17.43
2023-07-18T04:49:46.138Z,17.35
2023-07-18T04:50:46.140Z,17.43
2023-07-18T04:51:46.109Z,17.39
2023-07-18T04:52:46.097Z,17.45
2023-07-18T04:53:46.083Z,17.45
2023-07-18T04:54:46.080Z,17.45
2023-07-18T04:55:46.084Z,17.39
2023-07-18T04:56:46.082Z,17.43
2023-07-18T04:57:46.055Z,17.45
2023-07-18T04:58:46.038Z,17.56
2023-07-18T04:59:46.026Z,17.50
2023-07-18T05:00:46.030Z,17.63
2023-07-18T05:01:46.055Z,17.63
2023-07-18T05:02:46.024Z,17.66
2023-07-18T05:03:57.193Z,17.63
2023-07-18T05:04:47.014Z,17.59
2023-07-18T05:05:46.475Z,17.59
2023-07-18T05:06:45.948Z,17.66
2023-07-18T05:07:45.963Z,17.73
2023-07-18T05:08:45.930Z,17.63
2023-07-18T05:09:45.914Z,17.75
2023-07-18T05:10:45.926Z,17.78
2023-07-18T05:11:45.927Z,17.69
2023-07-18T05:12:45.885Z,17.84
2023-07-18T05:13:45.873Z,17.73
2023-07-18T05:14:45.872Z,17.86
2023-07-18T05:15:46.099Z,17.73
2023-07-18T05:16:45.900Z,17.88
2023-07-18T05:17:45.855Z,17.90
2023-07-18T05:18:45.828Z,17.90
2023-07-18T05:19:45.800Z,17.79
2023-07-18T05:20:45.814Z,17.93
2023-07-18T05:21:45.788Z,17.84
2023-07-18T05:22:45.865Z,17.88
2023-07-18T05:23:45.764Z,17.91
2023-07-18T05:24:45.753Z,17.91
2023-07-18T05:25:45.764Z,18.01
2023-07-18T05:26:45.734Z,17.96
2023-07-18T05:27:45.726Z,18.01
2023-07-18T05:28:45.708Z,18.06
2023-07-18T05:29:45.695Z,18.17
2023-07-18T05:30:45.713Z,18.08
2023-07-18T05:31:45.783Z,18.11
2023-07-18T05:32:45.696Z,18.18
2023-07-18T05:33:45.652Z,18.15
2023-07-18T05:34:45.643Z,18.12
2023-07-18T05:35:45.668Z,18.17
2023-07-18T05:36:45.665Z,18.17
2023-07-18T05:37:45.634Z,18.05
2023-07-18T05:38:45.608Z,18.13
2023-07-18T05:39:45.594Z,18.15
2023-07-18T05:40:45.584Z,18.28
2023-07-18T05:41:45.577Z,18.21
2023-07-18T05:42:45.589Z,18.26
2023-07-18T05:43:45.556Z,18.30
2023-07-18T05:44:45.560Z,18.34
2023-07-18T05:45:45.544Z,18.31
2023-07-18T05:46:45.532Z,18.24
2023-07-18T05:47:45.553Z,18.28
2023-07-18T05:48:45.523Z,18.31
2023-07-18T05:49:45.499Z,18.36
2023-07-18T05:50:45.494Z,18.36
2023-07-18T05:51:45.479Z,18.28
2023-07-18T05:52:45.500Z,18.42
2023-07-18T05:53:45.446Z,18.38
2023-07-18T05:54:45.438Z,18.43
2023-07-18T05:55:45.427Z,18.52
2023-07-18T05:56:45.425Z,18.54
2023-07-18T05:57:45.431Z,18.51
2023-07-18T05:58:45.394Z,18.66
2023-07-18T05:59:45.388Z,18.64
2023-07-18T06:00:45.422Z,18.70
2023-07-18T06:01:45.469Z,18.64
2023-07-18T06:02:45.425Z,18.74
2023-07-18T06:03:45.448Z,18.68
2023-07-18T06:04:45.382Z,18.79
2023-07-18T06:05:45.318Z,18.79
2023-07-18T06:06:45.308Z,18.81
2023-07-18T06:07:45.334Z,18.82
2023-07-18T06:08:45.308Z,18.85
2023-07-18T06:09:45.272Z,18.88
2023-07-18T06:10:45.268Z,18.85
2023-07-18T06:11:45.257Z,18.89
2023-07-18T06:12:45.286Z,18.86
2023-07-18T06:13:45.256Z,19.01
2023-07-18T06:14:45.236Z,18.91
2023-07-18T06:15:45.201Z,19.00
2023-07-18T06:16:45.267Z,19.01
2023-07-18T06:17:45.213Z,19.04
2023-07-18T06:18:45.202Z,18.94
2023-07-18T06:19:45.172Z,19.09
2023-07-18T06:20:45.177Z,19.12
2023-07-18T06:21:45.141Z,19.07
2023-07-18T06:22:45.177Z,19.08
2023-07-18T06:23:47.505Z,19.19
2023-07-18T06:24:45.138Z,19.16
2023-07-18T06:25:45.141Z,19.24
2023-07-18T06:26:45.092Z,19.30
2023-07-18T06:27:45.078Z,19.24
2023-07-18T06:28:45.071Z,19.22
2023-07-18T06:29:45.055Z,19.19
2023-07-18T06:30:45.144Z,19.32
2023-07-18T06:31:45.036Z,19.35
2023-07-18T06:32:45.096Z,19.38
2023-07-18T06:33:45.005Z,19.41
2023-07-18T06:34:44.998Z,19.44
2023-07-18T06:35:44.988Z,19.45
2023-07-18T06:36:45.027Z,19.45
2023-07-18T06:37:44.996Z,19.56
2023-07-18T06:38:44.961Z,19.54
2023-07-18T06:39:44.949Z,19.59
2023-07-18T06:40:44.939Z,19.62
2023-07-18T06:41:44.927Z,19.56
2023-07-18T06:42:44.971Z,19.71
2023-07-18T06:43:44.932Z,19.68
2023-07-18T06:44:44.894Z,19.71
2023-07-18T06:45:44.872Z,19.74
2023-07-18T06:46:44.964Z,19.78
2023-07-18T06:47:44.968Z,19.75
2023-07-18T06:48:44.853Z,19.77
2023-07-18T06:49:44.837Z,19.81
2023-07-18T06:50:44.828Z,19.90
2023-07-18T06:51:44.820Z,19.87
2023-07-18T06:52:44.868Z,19.96
2023-07-18T06:53:44.798Z,20.05
2023-07-18T06:54:44.786Z,20.07
2023-07-18T06:55:44.773Z,20.02
2023-07-18T06:56:44.761Z,20.11
2023-07-18T06:57:45.153Z,20.05
2023-07-18T06:58:44.772Z,20.14
2023-07-18T06:59:44.755Z,20.12
2023-07-18T07:00:44.763Z,20.19
2023-07-18T07:01:44.739Z,20.26
2023-07-18T07:02:44.811Z,20.25
2023-07-18T07:03:44.807Z,20.34
2023-07-18T07:04:44.705Z,20.36
2023-07-18T07:05:44.691Z,20.34
2023-07-18T07:06:44.654Z,20.41
2023-07-18T07:07:44.660Z,20.42
2023-07-18T07:08:44.805Z,20.50
2023-07-18T07:09:44.618Z,20.58
2023-07-18T07:10:44.641Z,20.63
2023-07-18T07:11:44.857Z,20.68
2023-07-18T07:12:44.593Z,20.83
2023-07-18T07:13:44.569Z,20.92
2023-07-18T07:14:44.569Z,20.93
2023-07-18T07:15:44.592Z,21.07
2023-07-18T07:16:44.561Z,21.22
2023-07-18T07:17:44.602Z,21.30
2023-07-18T07:18:44.567Z,21.43
2023-07-18T07:19:44.509Z,21.35
2023-07-18T07:20:44.516Z,21.44
2023-07-18T07:21:44.522Z,21.41
2023-07-18T07:22:44.524Z,21.60
2023-07-18T07:23:44.476Z,21.67
2023-07-18T07:24:44.483Z,21.85
2023-07-18T07:25:44.485Z,21.96
2023-07-18T07:26:44.463Z,22.16
2023-07-18T07:27:44.419Z,22.19
2023-07-18T07:28:44.422Z,22.11
2023-07-18T07:29:44.397Z,22.11
2023-07-18T07:30:44.454Z,21.98
2023-07-18T07:31:44.421Z,22.09
2023-07-18T07:32:44.480Z,22.11
2023-07-18T07:33:44.370Z,21.96
2023-07-18T07:34:44.350Z,22.11
2023-07-18T07:35:44.372Z,22.22
2023-07-18T07:36:44.353Z,22.30
2023-07-18T07:37:44.331Z,22.40
2023-07-18T07:38:44.303Z,22.51
2023-07-18T07:39:44.295Z,22.49
2023-07-18T07:40:44.350Z,22.64
2023-07-18T07:41:44.302Z,22.67
2023-07-18T07:42:44.268Z,22.71
2023-07-18T07:43:44.280Z,22.77
2023-07-18T07:44:44.253Z,22.73
2023-07-18T07:45:44.237Z,22.53
2023-07-18T07:46:44.260Z,22.53
2023-07-18T07:47:44.287Z,22.56
2023-07-18T07:48:44.219Z,22.68
2023-07-18T07:49:44.197Z,22.55
2023-07-18T07:50:44.180Z,22.59
2023-07-18T07:51:44.194Z,22.40
2023-07-18T07:52:44.176Z,22.48
2023-07-18T07:53:44.153Z,22.41
2023-07-18T07:54:44.142Z,22.33
2023-07-18T07:55:44.123Z,22.34
2023-07-18T07:56:44.153Z,22.23
2023-07-18T07:57:44.144Z,22.27
2023-07-18T07:58:45.676Z,22.18
2023-07-18T07:59:45.080Z,22.31
2023-07-18T08:00:44.072Z,22.31
2023-07-18T08:01:44.104Z,22.38
2023-07-18T08:02:44.132Z,22.49
2023-07-18T08:03:44.108Z,22.53
2023-07-18T08:04:44.118Z,22.59
2023-07-18T08:05:44.040Z,22.62
2023-07-18T08:06:44.021Z,22.59
2023-07-18T08:07:44.009Z,22.61
2023-07-18T08:08:43.995Z,22.59
2023-07-18T08:09:43.971Z,22.71
2023-07-18T08:10:43.983Z,22.81
2023-07-18T08:11:43.959Z,22.91
2023-07-18T08:12:44.164Z,23.08
2023-07-18T08:13:43.965Z,23.17
2023-07-18T08:14:43.928Z,23.22
2023-07-18T08:15:43.911Z,23.33
2023-07-18T08:16:43.961Z,23.36
2023-07-18T08:17:43.951Z,23.51
2023-07-18T08:18:43.916Z,23.63
2023-07-18T08:19:43.859Z,23.70
2023-07-18T08:20:43.860Z,23.91
2023-07-18T08:21:43.848Z,23.85
2023-07-18T08:22:43.879Z,23.79
2023-07-18T08:23:43.870Z,23.73
2023-07-18T08:24:43.807Z,23.71
2023-07-18T08:25:43.801Z,23.92
2023-07-18T08:26:43.787Z,24.07
2023-07-18T08:27:43.784Z,24.11
2023-07-18T08:28:43.832Z,24.19
2023-07-18T08:29:43.778Z,24.21
2023-07-18T08:30:43.762Z,24.23
2023-07-18T08:31:43.740Z,24.33
2023-07-18T08:32:43.771Z,24.34
2023-07-18T08:33:43.717Z,24.45
2023-07-18T08:34:43.723Z,24.34
2023-07-18T08:35:43.689Z,24.18
2023-07-18T08:36:43.684Z,24.22
2023-07-18T08:37:43.683Z,24.06
2023-07-18T08:38:43.665Z,24.00
2023-07-18T08:39:43.687Z,24.00
2023-07-18T08:40:43.643Z,24.04
2023-07-18T08:41:43.626Z,24.04
2023-07-18T08:42:43.623Z,24.04
2023-07-18T08:43:43.600Z,24.13
2023-07-18T08:44:43.654Z,24.18
2023-07-18T08:45:43.589Z,24.23
2023-07-18T08:46:43.645Z,24.23
2023-07-18T08:47:43.584Z,24.22
2023-07-18T08:48:43.559Z,24.29
2023-07-18T08:49:43.568Z,24.37
2023-07-18T08:50:43.556Z,24.38
2023-07-18T08:51:43.547Z,24.31
2023-07-18T08:52:43.624Z,24.25
2023-07-18T08:53:43.498Z,24.23
2023-07-18T08:54:43.520Z,24.03
2023-07-18T08:55:43.509Z,24.03
2023-07-18T08:56:43.471Z,23.92
2023-07-18T08:57:43.466Z,24.03
2023-07-18T08:58:43.456Z,24.08
2023-07-18T08:59:43.482Z,24.23
2023-07-18T09:00:43.487Z,24.38
2023-07-18T09:01:43.442Z,24.33
2023-07-18T09:02:43.542Z,24.38
2023-07-18T09:03:43.464Z,24.34
2023-07-18T09:04:43.390Z,24.36
2023-07-18T09:05:43.383Z,24.44
2023-07-18T09:06:43.403Z,24.44
2023-07-18T09:07:43.372Z,24.43
2023-07-18T09:08:43.368Z,24.41
2023-07-18T09:09:43.341Z,24.40
2023-07-18T09:10:43.369Z,24.55
2023-07-18T09:11:43.321Z,24.59
2023-07-18T09:12:43.304Z,24.58
2023-07-18T09:13:43.304Z,24.60
2023-07-18T09:14:43.284Z,24.76
2023-07-18T09:15:43.275Z,24.81
2023-07-18T09:16:43.392Z,24.76
2023-07-18T09:17:43.279Z,24.84
2023-07-18T09:18:43.237Z,24.86
2023-07-18T09:19:43.265Z,25.09
2023-07-18T09:20:43.236Z,25.14
2023-07-18T09:21:43.205Z,25.11
2023-07-18T09:22:43.244Z,25.00
2023-07-18T09:23:43.186Z,25.01
2023-07-18T09:24:45.243Z,24.89
2023-07-18T09:25:43.180Z,24.96
2023-07-18T09:26:43.152Z,24.94
2023-07-18T09:27:43.146Z,24.93
2023-07-18T09:28:43.126Z,25.01
2023-07-18T09:29:43.165Z,24.74
2023-07-18T09:30:43.115Z,24.62
2023-07-18T09:31:43.127Z,24.52
2023-07-18T09:32:43.169Z,24.56
2023-07-18T09:33:43.080Z,24.70
2023-07-18T09:34:43.069Z,24.71
2023-07-18T09:35:43.090Z,24.93
2023-07-18T09:36:43.052Z,24.97
2023-07-18T09:37:44.938Z,25.08
2023-07-18T09:38:43.047Z,25.12
2023-07-18T09:39:43.026Z,25.14
2023-07-18T09:40:44.814Z,25.26
2023-07-18T09:41:42.994Z,25.38
2023-07-18T09:42:45.225Z,25.66
2023-07-18T09:43:42.984Z,25.74
2023-07-18T09:45:43.007Z,25.98
2023-07-18T09:46:42.973Z,26.01
2023-07-18T09:47:42.998Z,26.08
2023-07-18T09:48:45.335Z,26.04
2023-07-18T09:49:42.945Z,25.89
2023-07-18T09:50:42.922Z,25.71
2023-07-18T09:51:42.896Z,25.63
2023-07-18T09:52:42.878Z,25.56
2023-07-18T09:53:42.871Z,25.43
2023-07-18T09:54:42.865Z,25.48
2023-07-18T09:55:42.875Z,25.49
2023-07-18T09:56:42.856Z,25.46
2023-07-18T09:57:42.832Z,25.27
2023-07-18T09:58:42.816Z,25.15
2023-07-18T09:59:42.832Z,25.27
2023-07-18T10:00:42.835Z,25.28
2023-07-18T10:01:42.837Z,25.21
2023-07-18T10:02:42.891Z,25.23
2023-07-18T10:03:42.798Z,25.14
2023-07-18T10:04:42.824Z,25.16
2023-07-18T10:05:42.785Z,25.14
2023-07-18T10:06:42.749Z,25.11
2023-07-18T10:07:42.742Z,25.12
2023-07-18T10:08:42.721Z,25.06
2023-07-18T10:09:42.708Z,25.06
2023-07-18T10:10:42.743Z,24.93
2023-07-18T10:11:42.673Z,24.91
2023-07-18T10:12:42.668Z,25.08
2023-07-18T10:13:42.654Z,25.06
2023-07-18T10:14:42.645Z,25.04
2023-07-18T10:15:42.672Z,25.12
2023-07-18T10:16:42.620Z,25.04
2023-07-18T10:17:42.702Z,24.97
2023-07-18T10:18:42.635Z,25.06
2023-07-18T10:19:42.592Z,25.08
2023-07-18T10:20:42.609Z,25.08
2023-07-18T10:21:42.579Z,25.01
2023-07-18T10:22:42.600Z,24.94
2023-07-18T10:23:42.568Z,25.03
2023-07-18T10:24:42.541Z,24.93
2023-07-18T10:25:42.532Z,24.82
2023-07-18T10:26:42.510Z,24.89
2023-07-18T10:27:42.538Z,24.82
2023-07-18T10:28:42.520Z,24.90
2023-07-18T10:29:42.504Z,24.86
2023-07-18T10:30:42.475Z,24.82
2023-07-18T10:31:42.481Z,24.79
2023-07-18T10:32:42.539Z,24.82
2023-07-18T10:33:42.447Z,24.85
2023-07-18T10:34:42.427Z,24.79
2023-07-18T10:35:42.458Z,24.86
2023-07-18T10:36:42.538Z,24.81
2023-07-18T10:37:42.441Z,24.78
2023-07-18T10:38:42.382Z,24.68
2023-07-18T10:39:42.386Z,24.59
2023-07-18T10:40:42.373Z,24.53
2023-07-18T10:41:42.360Z,24.53
2023-07-18T10:42:42.370Z,24.52
2023-07-18T10:43:42.346Z,24.41
2023-07-18T10:44:42.348Z,24.43
2023-07-18T10:45:42.374Z,24.40
2023-07-18T10:46:42.367Z,24.51
2023-07-18T10:47:42.326Z,24.66
2023-07-18T10:48:42.284Z,24.56
2023-07-18T10:49:42.298Z,24.66
2023-07-18T10:50:42.269Z,24.68
2023-07-18T10:51:42.255Z,24.75
2023-07-18T10:52:42.290Z,24.91
2023-07-18T10:53:42.268Z,24.93
2023-07-18T10:54:42.217Z,24.91
2023-07-18T10:55:42.234Z,25.08
2023-07-18T10:56:42.195Z,24.96
2023-07-18T10:57:42.212Z,24.93
2023-07-18T10:58:42.204Z,24.82
2023-07-18T10:59:42.179Z,24.76
2023-07-18T11:00:42.240Z,24.66
2023-07-18T11:01:42.193Z,24.74
2023-07-18T11:02:42.214Z,24.75
2023-07-18T11:03:42.138Z,24.78
2023-07-18T11:04:42.145Z,24.75
2023-07-18T11:05:42.130Z,24.66
2023-07-18T11:06:42.142Z,24.58
2023-07-18T11:07:42.135Z,24.58
2023-07-18T11:08:42.141Z,24.58
2023-07-18T11:09:42.071Z,24.60
2023-07-18T11:10:42.071Z,24.47
2023-07-18T11:11:42.134Z,24.56
2023-07-18T11:12:42.104Z,24.36
2023-07-18T11:13:42.015Z,24.41
2023-07-18T11:14:42.011Z,24.62
2023-07-18T11:15:42.017Z,24.74
2023-07-18T11:16:42.027Z,24.75
2023-07-18T11:17:42.017Z,24.81
2023-07-18T11:18:41.967Z,24.93
2023-07-18T11:19:41.980Z,25.11
2023-07-18T11:20:41.950Z,25.18
2023-07-18T11:21:41.938Z,25.19
2023-07-18T11:22:42.039Z,25.21
2023-07-18T11:23:41.911Z,25.21
2023-07-18T11:24:41.941Z,25.09
2023-07-18T11:25:41.889Z,25.00
2023-07-18T11:26:41.885Z,25.06
2023-07-18T11:27:41.885Z,25.11
2023-07-18T11:28:41.872Z,25.00
2023-07-18T11:29:41.864Z,25.04
2023-07-18T11:30:41.878Z,25.11
2023-07-18T11:31:42.871Z,25.26
2023-07-18T11:32:42.167Z,25.33
2023-07-18T11:33:41.827Z,25.45
2023-07-18T11:34:41.789Z,25.40
2023-07-18T11:35:41.814Z,25.48
2023-07-18T11:36:41.766Z,25.49
2023-07-18T11:37:43.057Z,25.56
2023-07-18T11:38:41.759Z,25.71
2023-07-18T11:39:41.765Z,25.67
2023-07-18T11:40:41.772Z,25.85
2023-07-18T11:41:41.783Z,25.88
2023-07-18T11:42:41.708Z,25.89
2023-07-18T11:43:41.718Z,26.04
2023-07-18T11:44:41.710Z,26.19
2023-07-18T11:45:41.713Z,26.26
2023-07-18T11:46:41.672Z,26.28
2023-07-18T11:47:41.752Z,26.39
2023-07-18T11:48:41.721Z,26.38
2023-07-18T11:49:41.644Z,26.42
2023-07-18T11:50:41.623Z,26.52
2023-07-18T11:51:41.652Z,26.43
2023-07-18T11:52:41.608Z,26.52
2023-07-18T11:53:41.606Z,26.51
2023-07-18T11:54:41.583Z,26.57
2023-07-18T11:55:41.575Z,26.56
2023-07-18T11:56:41.618Z,26.63
2023-07-18T11:57:41.570Z,26.53
2023-07-18T11:58:41.553Z,26.58
2023-07-18T11:59:41.549Z,26.71
2023-07-18T12:00:41.590Z,26.78
2023-07-18T12:01:41.574Z,26.78
2023-07-18T12:02:41.612Z,26.78
2023-07-18T12:03:41.571Z,26.83
2023-07-18T12:04:41.480Z,26.61
2023-07-18T12:05:41.509Z,26.76
2023-07-18T12:06:41.477Z,26.80
2023-07-18T12:07:41.449Z,26.86
2023-07-18T12:08:41.434Z,26.95
2023-07-18T12:09:41.437Z,26.98
2023-07-18T12:10:42.957Z,27.01
2023-07-18T12:11:41.418Z,27.08
2023-07-18T12:12:41.422Z,27.25
2023-07-18T12:13:41.388Z,27.19
2023-07-18T12:14:41.377Z,27.27
2023-07-18T12:15:41.372Z,27.16
2023-07-18T12:16:41.483Z,27.22
2023-07-18T12:17:41.397Z,27.34
2023-07-18T12:18:41.330Z,27.32
2023-07-18T12:19:41.324Z,27.42
2023-07-18T12:20:41.317Z,27.44
2023-07-18T12:21:41.338Z,27.53
2023-07-18T12:22:41.366Z,27.58
2023-07-18T12:23:41.295Z,27.47
2023-07-18T12:24:41.271Z,27.38
2023-07-18T12:25:41.294Z,27.23
2023-07-18T12:26:41.254Z,27.13
2023-07-18T12:27:41.256Z,26.88
2023-07-18T12:28:41.270Z,26.75
2023-07-18T12:29:41.230Z,26.43
2023-07-18T12:30:41.330Z,26.53
2023-07-18T12:31:41.255Z,26.63
2023-07-18T12:32:41.292Z,26.57
2023-07-18T12:33:41.188Z,26.51
2023-07-18T12:34:41.179Z,26.52
2023-07-18T12:35:41.168Z,26.45
2023-07-18T12:36:41.146Z,26.39
2023-07-18T12:37:41.154Z,26.30
2023-07-18T12:38:41.132Z,26.15
2023-07-18T12:39:41.175Z,26.11
2023-07-18T12:40:41.109Z,26.04
2023-07-18T12:41:41.086Z,25.98
2023-07-18T12:42:41.115Z,25.92
2023-07-18T12:43:41.084Z,25.92
2023-07-18T12:44:41.098Z,26.08
2023-07-18T12:45:41.058Z,26.27
2023-07-18T12:46:41.115Z,26.33
2023-07-18T12:47:41.032Z,26.39
2023-07-18T12:48:49.948Z,26.60
2023-07-18T12:50:41.003Z,26.68
2023-07-18T12:51:41.021Z,26.67
2023-07-18T12:52:40.998Z,26.57
2023-07-18T12:53:40.978Z,26.61
2023-07-18T12:54:40.976Z,26.75